Time;durP1;ratioP1;P1;durP2;ratioP2;P2;SDS_P1;SDS_P2;PMS_P1;PMS_P2;Temp;Humidity;BMP_temperature;BMP_pressure;BME280_temperature;BME280_humidity;BME280_pressure;Samples;Min_cycle;Max_cycle;Signal;HPM_P1;HPM_P2
2022/04/15 00:00:11;;;;;;;525.25;469.58;;;;;;;14.73;66.03;101538.59;683269;28;9957;-68
2022/04/15 00:00:32;;;;;;;495.80;440.35;;;;;;;14.73;65.85;101540.44;681062;28;67345;-68
2022/04/15 00:00:56;;;;;;;505.50;450.02;;;;;;;14.73;65.81;101543.16;683462;28;23421;-67
2022/04/15 00:01:17;;;;;;;512.42;456.98;;;;;;;14.74;65.71;101547.59;682607;28;92189;-67
2022/04/15 00:01:39;;;;;;;566.55;510.20;;;;;;;14.73;65.92;101546.75;684604;28;20285;-68
2022/04/15 00:02:01;;;;;;;571.92;515.38;;;;;;;14.73;65.58;101540.44;684966;28;47860;-67
2022/04/15 00:02:24;;;;;;;508.90;453.38;;;;;;;14.72;65.65;101545.06;684098;28;46413;-67
2022/04/15 00:02:46;;;;;;;493.73;438.45;;;;;;;14.72;65.94;101544.22;683888;28;67397;-68
2022/04/15 00:03:07;;;;;;;500.92;446.02;;;;;;;14.73;65.59;101543.16;684694;28;46263;-67
2022/04/15 00:03:30;;;;;;;507.52;452.48;;;;;;;14.71;65.82;101551.50;685322;28;23764;-67
2022/04/15 00:03:52;;;;;;;503.77;448.85;;;;;;;14.72;65.45;101541.50;683892;28;69403;-67
2022/04/15 00:04:13;;;;;;;516.97;461.77;;;;;;;14.69;65.77;101533.72;685828;28;22488;-67
2022/04/15 00:04:35;;;;;;;519.22;464.00;;;;;;;14.71;65.68;101546.06;681798;28;27332;-68
2022/04/15 00:04:57;;;;;;;504.40;449.52;;;;;;;14.72;65.90;101546.94;682060;28;46390;-68
2022/04/15 00:05:34;;;;;;;502.83;447.60;;;;;;;14.70;65.46;101547.13;682237;28;21517;-68
2022/04/15 00:05:55;;;;;;;508.02;452.98;;;;;;;14.70;65.48;101541.69;679298;28;135442;-67
2022/04/15 00:06:17;;;;;;;511.92;456.63;;;;;;;14.69;65.58;101539.16;681799;28;22343;-67
2022/04/15 00:06:39;;;;;;;517.85;462.35;;;;;;;14.70;65.38;101546.25;684685;28;23358;-67
2022/04/15 00:07:00;;;;;;;519.35;463.80;;;;;;;14.69;65.76;101542.69;684466;28;46125;-68
2022/04/15 00:07:21;;;;;;;515.50;460.08;;;;;;;14.70;65.75;101540.81;685579;28;24325;-68
2022/04/15 00:07:42;;;;;;;507.20;451.92;;;;;;;14.69;65.68;101539.16;685368;28;22421;-68
2022/04/15 00:08:04;;;;;;;508.95;453.75;;;;;;;14.69;66.01;101539.16;685627;28;23308;-68
2022/04/15 00:08:25;;;;;;;503.40;448.38;;;;;;;14.69;65.96;101540.00;683409;28;67350;-68
2022/04/15 00:08:46;;;;;;;504.55;449.58;;;;;;;14.68;65.65;101535.56;682477;28;21270;-68
2022/04/15 00:09:08;;;;;;;505.85;450.75;;;;;;;14.69;65.60;101539.16;682579;28;23419;-68
2022/04/15 00:09:30;;;;;;;496.80;441.90;;;;;;;14.67;65.86;101533.91;681025;28;46881;-68
2022/04/15 00:09:51;;;;;;;506.38;450.98;;;;;;;14.68;65.86;101535.56;681643;28;46277;-68
2022/04/15 00:10:13;;;;;;;506.25;450.98;;;;;;;14.69;65.51;101536.44;681250;28;23435;-68
2022/04/15 00:10:35;;;;;;;503.75;448.55;;;;;;;14.68;65.49;101543.72;682948;28;21436;-68
2022/04/15 00:10:57;;;;;;;505.02;449.88;;;;;;;14.67;65.48;101536.63;685393;28;39207;-68
2022/04/15 00:11:19;;;;;;;506.02;450.92;;;;;;;14.69;65.71;101531.00;678632;28;67750;-68
2022/04/15 00:11:40;;;;;;;516.55;461.17;;;;;;;14.68;65.76;101532.84;679515;28;22610;-68
2022/04/15 00:12:06;;;;;;;505.85;450.83;;;;;;;14.68;65.63;101538.28;680214;29;22444;-69
2022/04/15 00:12:28;;;;;;;513.53;458.33;;;;;;;14.67;65.52;101536.63;676968;28;138123;-67
2022/04/15 00:12:49;;;;;;;510.40;455.50;;;;;;;14.66;65.48;101540.34;680529;28;23500;-68
2022/04/15 00:13:12;;;;;;;509.23;454.05;;;;;;;14.66;65.64;101534.91;681265;28;47429;-68
2022/04/15 00:13:36;;;;;;;514.83;459.42;;;;;;;14.65;65.54;101533.22;683525;28;45463;-68
2022/04/15 00:13:57;;;;;;;511.42;456.20;;;;;;;14.68;65.44;101535.56;683242;28;93166;-68
2022/04/15 00:14:19;;;;;;;504.17;449.13;;;;;;;14.68;65.36;101538.28;684424;28;46625;-68
2022/04/15 00:14:41;;;;;;;512.50;457.30;;;;;;;14.69;65.24;101540.00;684797;28;22532;-68
2022/04/15 00:15:02;;;;;;;509.05;453.95;;;;;;;14.68;65.65;101541.00;684666;28;46916;-68
2022/04/15 00:15:24;;;;;;;515.25;459.85;;;;;;;14.69;65.48;101531.81;685530;28;5033;-68
2022/04/15 00:15:45;;;;;;;510.20;454.90;;;;;;;14.69;65.57;101539.16;685472;28;22486;-68
2022/04/15 00:16:07;;;;;;;508.63;453.38;;;;;;;14.69;65.49;101539.16;685786;28;19783;-68
2022/04/15 00:16:28;;;;;;;565.42;509.00;;;;;;;14.68;65.70;101534.72;684542;28;46352;-68
2022/04/15 00:16:50;;;;;;;519.22;463.77;;;;;;;14.69;65.40;101542.69;685016;28;23538;-67
2022/04/15 00:17:14;;;;;;;493.83;432.70;;;;;;;14.69;65.30;101542.69;684266;28;45355;-67
2022/04/15 00:17:36;;;;;;;506.48;451.17;;;;;;;14.69;65.30;101536.44;681811;28;93029;-67
2022/04/15 00:17:57;;;;;;;506.42;451.00;;;;;;;14.68;65.66;101532.84;684805;28;46421;-68
2022/04/15 00:18:19;;;;;;;506.52;451.35;;;;;;;14.68;65.64;101538.28;685384;28;22234;-68
2022/04/15 00:18:40;;;;;;;513.33;458.38;;;;;;;14.69;65.47;101536.44;685220;28;22393;-67
2022/04/15 00:19:02;;;;;;;507.90;453.58;;;;;;;14.69;65.51;101537.25;684460;28;46456;-68
2022/04/15 00:19:23;;;;;;;513.88;459.63;;;;;;;14.69;65.25;101531.81;685796;28;9718;-68
2022/04/15 00:19:47;;;;;;;517.72;462.90;;;;;;;14.70;64.89;101535.38;685434;28;23473;-68
2022/04/15 00:20:10;;;;;;;510.25;455.35;;;;;;;14.70;65.06;101528.09;683412;28;91450;-68
2022/04/15 00:20:33;;;;;;;504.40;449.15;;;;;;;14.69;65.29;101531.00;683031;28;66666;-68
2022/04/15 00:20:55;;;;;;;510.98;455.63;;;;;;;14.70;64.97;101532.66;684008;28;70581;-68
2022/04/15 00:21:16;;;;;;;506.08;450.98;;;;;;;14.69;65.00;101531.00;685775;28;23453;-68
2022/04/15 00:21:37;;;;;;;504.23;449.08;;;;;;;14.68;65.10;101527.41;684356;28;23470;-68
2022/04/15 00:21:59;;;;;;;507.02;451.90;;;;;;;14.70;65.29;101536.25;685770;28;22994;-68
2022/04/15 00:22:20;;;;;;;522.28;466.80;;;;;;;14.71;65.00;101537.09;684708;28;44435;-68
2022/04/15 00:22:44;;;;;;;522.20;466.80;;;;;;;14.69;65.00;101533.72;685621;28;22395;-68
2022/04/15 00:23:05;;;;;;;504.80;449.83;;;;;;;14.72;64.88;101533.34;682612;28;114568;-68
2022/04/15 00:23:26;;;;;;;527.13;471.58;;;;;;;14.72;64.82;101534.19;684455;28;45295;-68
2022/04/15 00:23:54;;;;;;;572.67;516.17;;;;;;;14.71;64.95;101532.47;685387;28;23526;-68
2022/04/15 00:24:15;;;;;;;514.03;458.52;;;;;;;14.71;64.72;101531.66;681499;28;137550;-68
2022/04/15 00:24:36;;;;;;;492.60;425.25;;;;;;;14.69;64.64;101529.09;685623;28;1650;-68
2022/04/15 00:24:58;;;;;;;494.38;437.95;;;;;;;14.69;64.67;101529.09;685863;28;22381;-68
2022/04/15 00:25:20;;;;;;;498.15;443.20;;;;;;;14.69;64.76;101533.72;683626;28;69533;-68
2022/04/15 00:25:41;;;;;;;494.65;439.48;;;;;;;14.70;64.81;101530.81;684543;28;46271;-68
2022/04/15 00:26:03;;;;;;;493.88;437.77;;;;;;;14.70;64.71;101532.66;685337;28;24872;-68
2022/04/15 00:26:25;;;;;;;493.67;438.85;;;;;;;14.69;65.06;101528.28;685761;28;1860;-68
2022/04/15 00:26:46;;;;;;;496.23;441.42;;;;;;;14.69;64.90;101525.56;683265;28;44488;-68
2022/04/15 00:27:07;;;;;;;497.25;442.35;;;;;;;14.69;64.86;101531.81;685748;28;21550;-68
2022/04/15 00:27:28;;;;;;;505.85;450.65;;;;;;;14.69;65.04;101534.53;684496;28;22396;-68
2022/04/15 00:27:50;;;;;;;521.25;466.08;;;;;;;14.68;64.80;101530.13;685258;28;21543;-68
2022/04/15 00:28:11;;;;;;;509.60;454.70;;;;;;;14.67;64.77;101531.19;684608;28;47241;-68
2022/04/15 00:28:34;;;;;;;514.20;459.20;;;;;;;14.66;64.74;101531.38;684367;28;47212;-68
2022/04/15 00:28:55;;;;;;;520.88;465.80;;;;;;;14.64;65.09;101534.25;685314;28;46327;-67
2022/04/15 00:29:17;;;;;;;497.67;442.77;;;;;;;14.64;64.80;101536.97;685588;28;21298;-67
2022/04/15 00:29:38;;;;;;;495.88;441.08;;;;;;;14.65;65.15;101538.66;684006;28;45220;-67
2022/04/15 00:29:59;;;;;;;498.73;443.95;;;;;;;14.64;64.68;101534.25;685293;28;22981;-69
2022/04/15 00:30:21;;;;;;;518.47;463.65;;;;;;;14.62;64.74;101539.03;683724;28;46281;-68
2022/04/15 00:30:42;;;;;;;497.50;442.67;;;;;;;14.62;64.97;101539.03;685059;28;22454;-68
2022/04/15 00:31:04;;;;;;;497.58;442.58;;;;;;;14.63;65.19;101540.72;682145;28;46322;-68
2022/04/15 00:31:26;;;;;;;507.20;451.90;;;;;;;14.62;64.72;101540.91;682462;28;22401;-68
2022/04/15 00:31:47;;;;;;;507.48;452.20;;;;;;;14.56;64.72;101537.88;680980;28;46319;-69
2022/04/15 00:32:08;;;;;;;516.10;460.77;;;;;;;14.57;65.25;101544.97;682609;28;23538;-69
2022/04/15 00:32:29;;;;;;;500.92;445.88;;;;;;;14.57;65.00;101542.25;682313;28;21708;-68
2022/04/15 00:32:51;;;;;;;493.08;429.60;;;;;;;14.56;65.08;101546.03;683575;28;22407;-69
2022/04/15 00:33:12;;;;;;;494.17;432.63;;;;;;;14.55;64.77;101540.78;684707;28;44369;-69
2022/04/15 00:33:34;;;;;;;495.70;440.08;;;;;;;14.53;65.27;101545.53;684533;28;46295;-68
2022/04/15 00:33:55;;;;;;;492.95;436.10;;;;;;;14.52;65.21;101543.84;682437;28;22220;-69
2022/04/15 00:34:17;;;;;;;493.50;438.77;;;;;;;14.49;65.08;101544.22;682884;28;21333;-69
2022/04/15 00:34:38;;;;;;;506.08;451.00;;;;;;;14.48;65.13;101546.09;682131;28;45242;-70
2022/04/15 00:34:59;;;;;;;499.95;445.30;;;;;;;14.47;65.30;101540.84;682533;28;23463;-69
2022/04/15 00:35:20;;;;;;;506.75;452.20;;;;;;;14.48;65.48;101550.69;683799;28;21298;-69
2022/04/15 00:35:41;;;;;;;513.70;458.55;;;;;;;14.45;65.08;101532.00;683008;28;22379;-69
2022/04/15 00:36:04;;;;;;;501.83;447.77;;;;;;;14.44;65.33;101541.22;685776;28;23490;-69
2022/04/15 00:36:25;;;;;;;501.67;448.77;;;;;;;14.42;65.36;101542.25;684257;28;43412;-69
2022/04/15 00:36:46;;;;;;;512.22;459.08;;;;;;;14.42;65.62;101547.66;684821;28;23265;-70
2022/04/15 00:37:07;;;;;;;510.85;456.70;;;;;;;14.41;65.55;101543.25;680967;29;1440;-69
2022/04/15 00:37:31;;;;;;;545.40;490.30;;;;;;;14.41;65.64;101539.69;680755;28;21522;-69
2022/04/15 00:37:52;;;;;;;574.67;519.28;;;;;;;14.44;65.50;101546.66;679502;28;70877;-69
2022/04/15 00:38:13;;;;;;;513.15;458.77;;;;;;;14.44;65.36;101544.78;679354;29;47062;-69
2022/04/15 00:38:34;;;;;;;483.00;410.55;;;;;;;14.45;65.03;101542.88;680872;28;22403;-68
2022/04/15 00:38:56;;;;;;;484.40;414.58;;;;;;;14.46;65.38;101536.44;682865;28;23470;-69
2022/04/15 00:39:17;;;;;;;479.63;426.23;;;;;;;14.44;65.04;101538.50;684619;28;47032;-69
2022/04/15 00:39:45;;;;;;;498.98;445.92;;;;;;;14.47;65.36;101540.84;684706;28;22528;-69
2022/04/15 00:40:09;;;;;;;510.60;457.17;;;;;;;14.48;65.38;101542.53;681864;28;136361;-68
2022/04/15 00:40:31;;;;;;;509.25;455.85;;;;;;;14.47;65.19;101547.13;682072;28;113349;-69
2022/04/15 00:40:52;;;;;;;498.50;446.10;;;;;;;14.47;65.46;101546.28;685439;28;22399;-68
2022/04/15 00:41:14;;;;;;;503.05;450.17;;;;;;;14.44;65.40;101544.78;685819;28;23650;-68
2022/04/15 00:41:36;;;;;;;503.35;450.15;;;;;;;14.44;64.98;101543.94;683390;28;45321;-69
2022/04/15 00:41:58;;;;;;;507.95;455.30;;;;;;;14.44;64.97;101542.06;685438;28;46353;-69
2022/04/15 00:42:20;;;;;;;508.30;455.17;;;;;;;14.44;65.41;101543.94;681151;28;45289;-69
2022/04/15 00:42:41;;;;;;;507.75;453.95;;;;;;;14.42;65.13;101535.97;681156;28;68502;-69
2022/04/15 00:43:03;;;;;;;508.48;454.35;;;;;;;14.44;65.32;101549.38;682738;28;23402;-69
2022/04/15 00:43:24;;;;;;;535.70;481.98;;;;;;;14.44;65.09;101542.06;681679;28;47200;-69
2022/04/15 00:43:47;;;;;;;572.05;517.53;;;;;;;14.42;65.35;101542.25;683004;28;22395;-69
2022/04/15 00:44:09;;;;;;;572.60;518.15;;;;;;;14.43;65.27;101545.78;682980;28;46346;-69
2022/04/15 00:44:35;;;;;;;490.50;438.77;;;;;;;14.41;65.27;101543.25;683582;28;60632;-69
2022/04/15 00:44:56;;;;;;;489.17;437.67;;;;;;;14.42;65.08;101550.38;685908;28;21545;-69
2022/04/15 00:45:17;;;;;;;496.88;444.48;;;;;;;14.44;65.40;101543.94;684552;28;46288;-69
2022/04/15 00:45:39;;;;;;;498.65;444.63;;;;;;;14.42;65.19;101542.25;684864;28;22233;-69
2022/04/15 00:46:07;;;;;;;499.05;444.90;;;;;;;14.43;65.38;101537.63;684676;28;44378;-69
2022/04/15 00:46:28;;;;;;;496.50;442.27;;;;;;;14.43;65.17;101548.50;680642;28;161218;-69
2022/04/15 00:46:50;;;;;;;498.75;444.10;;;;;;;14.40;64.98;101538.88;684380;28;22433;-69
2022/04/15 00:47:23;;;;;;;510.90;455.80;;;;;;;14.41;65.23;101540.53;685221;28;46180;-69
2022/04/15 00:47:47;;;;;;;502.85;448.00;;;;;;;14.43;65.09;101543.06;680061;28;161440;-68
2022/04/15 00:48:09;;;;;;;496.38;441.48;;;;;;;14.42;64.88;101538.69;682199;28;115017;-68
2022/04/15 00:48:31;;;;;;;494.70;440.00;;;;;;;14.41;65.30;101545.97;684134;28;46400;-68
2022/04/15 00:48:52;;;;;;;506.25;451.33;;;;;;;14.41;64.95;101540.53;683883;28;44326;-69
2022/04/15 00:49:13;;;;;;;502.63;447.73;;;;;;;14.41;65.06;101543.25;685148;28;22238;-68
2022/04/15 00:49:35;;;;;;;500.90;445.90;;;;;;;14.40;65.38;101540.72;684580;28;23617;-69
2022/04/15 00:49:57;;;;;;;516.00;460.60;;;;;;;14.38;64.78;101535.47;685114;28;43844;-68
2022/04/15 00:50:18;;;;;;;498.13;443.23;;;;;;;14.40;65.39;101540.72;685131;28;45227;-68
2022/04/15 00:50:40;;;;;;;493.23;438.08;;;;;;;14.40;65.35;101535.28;684877;28;23512;-69
2022/04/15 00:51:02;;;;;;;513.75;458.45;;;;;;;14.40;64.96;101538.88;684698;28;46285;-69
2022/04/15 00:51:23;;;;;;;504.63;449.52;;;;;;;14.39;65.18;101537.16;685065;28;46361;-69
2022/04/15 00:51:45;;;;;;;502.63;447.67;;;;;;;14.39;65.00;101539.03;684431;28;22365;-68
2022/04/15 00:52:08;;;;;;;506.67;451.67;;;;;;;14.40;64.84;101544.31;684469;28;46311;-69
2022/04/15 00:52:37;;;;;;;506.35;451.25;;;;;;;14.41;64.99;101539.69;683964;28;69187;-69
2022/04/15 00:52:59;;;;;;;507.65;452.27;;;;;;;14.41;64.85;101535.09;680256;28;136192;-69
2022/04/15 00:53:23;;;;;;;504.77;449.58;;;;;;;14.36;64.98;101531.25;684761;28;47465;-69
2022/04/15 00:53:46;;;;;;;504.38;449.25;;;;;;;14.38;64.69;101535.47;684359;28;70585;-69
2022/04/15 00:54:09;;;;;;;506.30;451.10;;;;;;;14.38;65.22;101534.63;683136;28;92301;-69
2022/04/15 00:54:34;;;;;;;503.33;448.13;;;;;;;14.38;64.65;101532.75;685330;28;36388;-68
2022/04/15 00:54:55;;;;;;;512.45;457.13;;;;;;;14.39;65.10;101533.63;683818;28;67487;-68
2022/04/15 00:55:20;;;;;;;513.38;457.92;;;;;;;14.39;64.97;101539.88;684890;28;46296;-68
2022/04/15 00:55:42;;;;;;;503.55;448.27;;;;;;;14.37;64.59;101536.50;683294;28;93176;-68
2022/04/15 00:56:05;;;;;;;495.55;440.02;;;;;;;14.38;64.89;101538.19;684942;28;46342;-69
2022/04/15 00:56:29;;;;;;;561.22;504.90;;;;;;;14.38;64.97;101532.75;683883;28;70293;-68
2022/04/15 00:56:54;;;;;;;540.72;484.70;;;;;;;14.38;64.88;101534.63;682817;28;90706;-68
2022/04/15 00:57:16;;;;;;;492.92;427.33;;;;;;;14.37;64.96;101535.66;682111;28;115830;-68
2022/04/15 00:57:40;;;;;;;496.30;441.05;;;;;;;14.34;64.64;101536.88;684376;28;67164;-68
2022/04/15 00:58:02;;;;;;;497.17;442.27;;;;;;;14.35;65.03;101535.81;683908;28;67477;-68
2022/04/15 00:58:25;;;;;;;494.05;437.67;;;;;;;14.32;64.75;101533.47;684800;28;44406;-68
2022/04/15 00:58:48;;;;;;;499.38;444.42;;;;;;;14.33;64.79;101535.19;683918;28;70164;-69
2022/04/15 00:59:10;;;;;;;500.27;445.17;;;;;;;14.35;64.85;101538.53;683007;28;90702;-69
2022/04/15 00:59:31;;;;;;;497.08;442.02;;;;;;;14.33;64.58;101532.47;685529;28;22419;-68
2022/04/15 00:59:54;;;;;;;496.60;440.63;;;;;;;14.34;64.81;101530.56;685298;28;23440;-68
2022/04/15 01:00:16;;;;;;;493.85;436.90;;;;;;;14.34;64.88;101534.16;683201;28;93027;-68
2022/04/15 01:00:37;;;;;;;500.33;445.25;;;;;;;14.33;64.55;101529.75;685884;28;21611;-68
2022/04/15 01:01:01;;;;;;;509.65;454.45;;;;;;;14.32;64.52;101533.47;684968;28;44375;-68
2022/04/15 01:01:22;;;;;;;519.35;463.77;;;;;;;14.33;64.82;101537.06;683918;28;69390;-68
2022/04/15 01:01:43;;;;;;;508.80;453.63;;;;;;;14.32;64.76;101532.63;684871;28;22378;-69
2022/04/15 01:02:05;;;;;;;505.60;450.50;;;;;;;14.34;64.82;101533.28;685727;28;23475;-68
2022/04/15 01:02:26;;;;;;;499.52;444.48;;;;;;;14.34;64.79;101536.88;684718;28;47462;-68
2022/04/15 01:02:49;;;;;;;498.40;443.50;;;;;;;14.34;64.83;101528.72;685734;28;23372;-68
2022/04/15 01:03:15;;;;;;;509.92;454.83;;;;;;;14.34;64.62;101534.16;683728;28;67340;-68
2022/04/15 01:03:37;;;;;;;520.45;465.27;;;;;;;14.32;64.58;101521.78;681879;28;138707;-69
2022/04/15 01:04:00;;;;;;;493.98;439.33;;;;;;;14.36;64.70;101537.53;685447;28;23463;-69
2022/04/15 01:04:23;;;;;;;495.13;439.92;;;;;;;14.35;64.69;101533.09;683371;28;67462;-69
2022/04/15 01:04:44;;;;;;;555.40;499.50;;;;;;;14.36;64.75;101534.81;683874;28;70208;-69
2022/04/15 01:05:07;;;;;;;511.13;456.33;;;;;;;14.36;64.64;101539.41;685410;28;23493;-69
2022/04/15 01:05:28;;;;;;;488.15;426.10;;;;;;;14.35;64.31;101533.09;683428;28;70365;-69
2022/04/15 01:05:59;;;;;;;488.40;432.60;;;;;;;14.36;64.31;101537.53;681401;28;138810;-69
2022/04/15 01:06:20;;;;;;;493.58;438.95;;;;;;;14.38;64.20;101531.91;682295;28;115102;-69
2022/04/15 01:06:45;;;;;;;493.80;439.08;;;;;;;14.38;64.20;101529.19;684988;28;21521;-69
2022/04/15 01:07:08;;;;;;;496.63;441.67;;;;;;;14.38;64.46;101531.91;682540;28;115261;-69
2022/04/15 01:07:33;;;;;;;500.45;445.40;;;;;;;14.39;64.53;101539.03;683450;28;69332;-68
2022/04/15 01:07:56;;;;;;;511.92;456.80;;;;;;;14.37;64.05;101528.34;682852;28;114882;-69
2022/04/15 01:08:21;;;;;;;492.83;434.55;;;;;;;14.36;64.41;101531.25;684266;28;69698;-69
2022/04/15 01:08:44;;;;;;;494.95;440.20;;;;;;;14.33;64.35;101527.03;682608;28;115837;-68
2022/04/15 01:09:06;;;;;;;494.25;439.52;;;;;;;14.34;64.11;101534.16;681381;28;69278;-69
2022/04/15 01:09:31;;;;;;;500.02;445.27;;;;;;;14.34;64.35;101534.16;682249;28;44051;-69
2022/04/15 01:09:53;;;;;;;494.70;439.90;;;;;;;14.34;64.11;101533.28;679454;28;114514;-69
2022/04/15 01:10:16;;;;;;;490.88;433.92;;;;;;;14.34;64.41;101527.84;682146;28;45302;-69
2022/04/15 01:10:38;;;;;;;499.02;444.45;;;;;;;14.34;64.22;101538.72;681161;28;69344;-69
2022/04/15 01:11:03;;;;;;;497.48;442.88;;;;;;;14.33;64.14;101535.19;683516;28;46144;-68
2022/04/15 01:11:27;;;;;;;496.50;441.73;;;;;;;14.32;64.23;101533.47;682330;28;114788;-68
2022/04/15 01:11:50;;;;;;;494.92;440.13;;;;;;;14.34;64.07;101530.56;681397;28;115016;-68
2022/04/15 01:12:16;;;;;;;496.45;441.67;;;;;;;14.32;64.23;101532.63;684282;28;69158;-69
2022/04/15 01:12:38;;;;;;;499.15;444.50;;;;;;;14.31;64.09;101539.09;681626;28;138121;-68
2022/04/15 01:13:06;;;;;;;497.95;443.27;;;;;;;14.30;63.90;101540.97;684794;28;46353;-68
2022/04/15 01:13:32;;;;;;;499.67;444.92;;;;;;;14.28;64.29;101532.16;681417;28;138465;-68
2022/04/15 01:13:56;;;;;;;501.02;446.13;;;;;;;14.29;64.15;101535.72;682123;28;115068;-69
2022/04/15 01:14:18;;;;;;;500.67;445.63;;;;;;;14.28;64.10;101537.59;682284;28;115854;-69
2022/04/15 01:14:42;;;;;;;499.55;444.35;;;;;;;14.28;64.16;101542.16;683745;28;45727;-68
2022/04/15 01:15:07;;;;;;;495.65;440.80;;;;;;;14.27;64.12;101535.91;681543;28;91865;-69
2022/04/15 01:15:28;;;;;;;492.58;435.38;;;;;;;14.28;63.90;101540.31;682986;28;14463;-68
2022/04/15 01:15:50;;;;;;;506.58;451.48;;;;;;;14.29;63.79;101535.72;682951;28;24921;-68
2022/04/15 01:16:13;;;;;;;508.02;453.02;;;;;;;14.30;63.93;101543.69;681195;28;70182;-68
2022/04/15 01:16:34;;;;;;;497.13;442.42;;;;;;;14.30;63.82;101540.97;681768;28;46280;-68
2022/04/15 01:16:55;;;;;;;492.83;437.52;;;;;;;14.27;63.94;101541.34;657013;28;43285;-68
2022/04/15 01:17:16;;;;;;;494.20;439.50;;;;;;;14.26;63.82;101538.81;679255;29;45225;-68
2022/04/15 01:17:38;;;;;;;494.85;439.70;;;;;;;14.27;63.81;101535.06;679902;29;22390;-68
2022/04/15 01:18:00;;;;;;;506.23;451.30;;;;;;;14.29;63.86;101538.44;680827;29;1106;-68
2022/04/15 01:18:21;;;;;;;506.38;451.58;;;;;;;14.27;64.18;101529.63;679145;29;45400;-69
2022/04/15 01:18:42;;;;;;;498.75;444.10;;;;;;;14.29;64.15;101543.88;679198;29;46187;-69
2022/04/15 01:19:04;;;;;;;495.00;440.50;;;;;;;14.28;63.80;101534.03;684522;28;22453;-69
2022/04/15 01:19:25;;;;;;;507.25;452.42;;;;;;;14.26;63.72;101531.47;681935;28;23471;-68
2022/04/15 01:19:47;;;;;;;493.02;438.52;;;;;;;14.25;63.75;101535.25;681176;28;46363;-69
2022/04/15 01:20:09;;;;;;;497.70;443.40;;;;;;;14.27;63.57;101543.22;682779;28;22394;-68
2022/04/15 01:20:31;;;;;;;496.48;442.08;;;;;;;14.23;63.63;101532.72;680770;28;67479;-69
2022/04/15 01:20:54;;;;;;;499.23;444.63;;;;;;;14.27;63.60;101541.34;682490;28;23362;-69
2022/04/15 01:21:16;;;;;;;507.35;452.45;;;;;;;14.27;63.66;101533.19;681215;28;69410;-68
2022/04/15 01:21:38;;;;;;;506.88;451.75;;;;;;;14.25;64.01;101537.97;683586;28;46300;-69
2022/04/15 01:22:02;;;;;;;498.20;443.30;;;;;;;14.24;63.93;101537.09;684605;28;46741;-68
2022/04/15 01:22:25;;;;;;;497.95;443.05;;;;;;;14.26;63.83;101542.34;682986;28;92147;-69
2022/04/15 01:22:47;;;;;;;496.75;442.05;;;;;;;14.25;63.63;101537.97;684101;28;69335;-69
2022/04/15 01:23:10;;;;;;;498.13;443.35;;;;;;;14.23;63.77;101535.44;684663;28;45256;-68
2022/04/15 01:23:32;;;;;;;495.08;440.17;;;;;;;14.26;63.78;101536.09;682680;28;92261;-69
2022/04/15 01:23:54;;;;;;;493.77;437.05;;;;;;;14.26;63.41;101536.91;685412;28;22447;-69
2022/04/15 01:24:15;;;;;;;514.95;459.58;;;;;;;14.27;63.63;101535.91;681464;28;45146;-69
2022/04/15 01:24:38;;;;;;;565.97;509.67;;;;;;;14.28;63.59;101534.88;682304;28;24382;-69
2022/04/15 01:24:59;;;;;;;490.85;431.65;;;;;;;14.29;63.29;101539.28;681330;28;69268;-69
2022/04/15 01:25:21;;;;;;;491.38;434.02;;;;;;;14.28;62.86;101539.44;682778;28;20583;-69
2022/04/15 01:25:42;;;;;;;494.77;440.08;;;;;;;14.23;63.03;101535.44;683137;28;1764;-67
2022/04/15 01:26:04;;;;;;;492.42;437.92;;;;;;;14.23;63.12;101540.00;682391;28;22371;-68
2022/04/15 01:26:25;;;;;;;496.15;440.92;;;;;;;14.24;63.16;101542.53;681994;28;44391;-67
2022/04/15 01:26:47;;;;;;;498.30;443.25;;;;;;;14.23;62.80;101540.88;682225;28;22407;-68
2022/04/15 01:27:08;;;;;;;496.30;439.55;;;;;;;14.22;63.23;101538.31;681932;28;46650;-67
2022/04/15 01:27:32;;;;;;;500.15;444.92;;;;;;;14.20;62.91;101538.50;682788;28;21553;-68
2022/04/15 01:27:54;;;;;;;501.92;446.83;;;;;;;14.18;62.97;101543.25;680620;28;91940;-68
2022/04/15 01:28:17;;;;;;;510.45;455.00;;;;;;;14.17;62.84;101541.59;682869;28;23508;-68
2022/04/15 01:28:38;;;;;;;502.25;446.83;;;;;;;14.17;63.31;101540.72;679757;28;93172;-68
2022/04/15 01:28:59;;;;;;;496.25;436.90;;;;;;;14.14;63.43;101541.94;683155;28;22440;-68
2022/04/15 01:29:20;;;;;;;497.77;439.58;;;;;;;14.17;63.34;101541.59;682943;28;21550;-68
2022/04/15 01:29:42;;;;;;;498.63;439.00;;;;;;;14.16;63.13;101539.06;682212;28;21328;-68
2022/04/15 01:30:05;;;;;;;497.98;440.33;;;;;;;14.12;63.12;101544.00;682280;28;44142;-68
2022/04/15 01:30:27;;;;;;;498.35;441.25;;;;;;;14.12;63.27;101537.72;680966;28;67454;-68
2022/04/15 01:30:49;;;;;;;495.92;428.20;;;;;;;14.14;63.10;101541.13;682851;28;21519;-69
2022/04/15 01:31:11;;;;;;;496.13;440.77;;;;;;;14.14;63.42;101539.22;682126;28;46344;-69
2022/04/15 01:31:32;;;;;;;499.77;444.55;;;;;;;14.14;63.38;101541.94;681834;28;44397;-69
2022/04/15 01:31:53;;;;;;;494.75;435.35;;;;;;;14.15;63.41;101540.94;682180;28;23427;-69
2022/04/15 01:32:14;;;;;;;493.30;433.08;;;;;;;14.16;62.91;101545.31;683072;28;23474;-68
2022/04/15 01:32:35;;;;;;;496.35;439.77;;;;;;;14.16;62.87;101544.47;681109;28;47733;-69
2022/04/15 01:32:57;;;;;;;495.83;438.65;;;;;;;14.14;62.77;101541.94;682535;28;21514;-68
2022/04/15 01:33:19;;;;;;;494.77;437.10;;;;;;;14.16;62.93;101548.03;681732;28;47593;-68
2022/04/15 01:33:40;;;;;;;494.75;437.45;;;;;;;14.18;63.01;101542.41;682579;28;23417;-68
2022/04/15 01:34:01;;;;;;;492.83;434.90;;;;;;;14.18;62.84;101545.13;682714;28;22392;-68
2022/04/15 01:34:23;;;;;;;496.08;441.20;;;;;;;14.19;62.38;101546.84;682914;28;5730;-68
2022/04/15 01:34:45;;;;;;;494.50;436.92;;;;;;;14.16;62.14;101536.34;681847;28;46276;-68
2022/04/15 01:35:08;;;;;;;507.25;452.08;;;;;;;14.15;61.77;101549.09;683076;28;22212;-68
2022/04/15 01:35:29;;;;;;;508.95;453.73;;;;;;;14.17;62.23;101541.59;679725;28;93264;-68
2022/04/15 01:35:51;;;;;;;501.90;446.85;;;;;;;14.19;61.89;101550.38;682571;28;22182;-68
2022/04/15 01:36:15;;;;;;;505.67;450.60;;;;;;;14.20;62.17;101549.38;682592;28;44461;-68
2022/04/15 01:36:36;;;;;;;496.33;441.42;;;;;;;14.21;62.05;101552.94;679669;28;90288;-68
2022/04/15 01:36:59;;;;;;;493.63;438.85;;;;;;;14.23;61.59;101556.31;682704;28;23646;-68
2022/04/15 01:37:22;;;;;;;493.70;436.02;;;;;;;14.21;61.65;101544.78;681985;28;47658;-68
2022/04/15 01:37:45;;;;;;;492.65;437.27;;;;;;;14.23;61.38;101551.72;680798;28;92210;-68
2022/04/15 01:38:10;;;;;;;492.67;436.40;;;;;;;14.23;61.22;101549.00;681761;28;46635;-68
2022/04/15 01:38:33;;;;;;;491.90;428.33;;;;;;;14.23;61.10;101548.16;678873;28;114904;-68
2022/04/15 01:38:56;;;;;;;492.55;431.25;;;;;;;14.21;61.11;101545.63;681368;28;66108;-68
2022/04/15 01:39:17;;;;;;;496.40;441.60;;;;;;;14.22;60.96;101549.19;680801;28;67465;-68
2022/04/15 01:39:38;;;;;;;493.33;434.83;;;;;;;14.21;61.27;101545.63;682113;28;22219;-69
2022/04/15 01:39:59;;;;;;;500.83;445.75;;;;;;;14.21;61.46;101547.50;682671;28;22521;-68
2022/04/15 01:40:20;;;;;;;497.55;442.80;;;;;;;14.21;61.37;101548.34;682730;28;23616;-68